createdAt,value
2022-12-09T00:02:02.398Z,13.77
2022-12-09T00:04:28.848Z,13.50
2022-12-09T00:06:55.511Z,13.02
2022-12-09T00:09:22.021Z,12.75
2022-12-09T00:11:48.596Z,13.77
2022-12-09T00:14:14.899Z,12.27
2022-12-09T00:16:41.617Z,11.90
2022-12-09T00:19:08.006Z,12.82
2022-12-09T00:21:34.739Z,13.20
2022-12-09T00:24:07.028Z,13.02
2022-12-09T00:26:33.731Z,12.68
2022-12-09T00:29:01.236Z,11.70
2022-12-09T00:31:31.841Z,10.85
2022-12-09T00:34:00.856Z,10.40
2022-12-09T00:36:28.499Z,10.27
2022-12-09T00:38:56.773Z,11.23
2022-12-09T00:41:23.336Z,11.02
2022-12-09T00:43:49.642Z,10.98
2022-12-09T00:46:16.412Z,12.07
2022-12-09T00:48:45.495Z,10.60
2022-12-09T00:51:16.216Z,11.48
2022-12-09T00:53:43.042Z,11.38
2022-12-09T00:56:10.040Z,10.60
2022-12-09T00:58:36.371Z,10.88
2022-12-09T01:01:03.044Z,10.25
2022-12-09T01:03:30.067Z,10.43
2022-12-09T01:05:56.696Z,10.02
2022-12-09T01:08:24.375Z,10.85
2022-12-09T01:10:50.934Z,9.35
2022-12-09T01:13:17.516Z,9.95
2022-12-09T01:15:44.548Z,10.63
2022-12-09T01:18:12.637Z,10.18
2022-12-09T01:20:39.348Z,10.55
2022-12-09T01:23:05.841Z,10.77
2022-12-09T01:25:32.374Z,11.30
2022-12-09T01:27:58.713Z,10.10
2022-12-09T01:30:25.355Z,10.57
2022-12-09T01:32:51.895Z,11.23
2022-12-09T01:35:18.435Z,10.57
2022-12-09T01:37:44.973Z,10.52
2022-12-09T01:40:16.795Z,9.98
2022-12-09T01:42:43.519Z,11.18
2022-12-09T01:45:22.250Z,9.75
2022-12-09T01:47:52.850Z,9.35
2022-12-09T01:50:20.092Z,11.82
2022-12-09T01:52:49.472Z,10.40
2022-12-09T01:55:16.818Z,10.45
2022-12-09T01:57:44.633Z,11.25
2022-12-09T02:00:12.762Z,10.40
2022-12-09T02:02:42.575Z,10.60
2022-12-09T02:05:09.499Z,11.30
2022-12-09T02:07:36.163Z,10.05
2022-12-09T02:10:09.762Z,11.68
2022-12-09T02:12:42.711Z,10.80
2022-12-09T02:15:17.993Z,11.27
2022-12-09T02:17:53.358Z,10.38
2022-12-09T02:20:45.401Z,10.15
2022-12-09T02:23:19.421Z,9.68
2022-12-09T02:25:49.626Z,10.75
2022-12-09T02:28:49.517Z,10.47
2022-12-09T02:31:46.865Z,10.10
2022-12-09T02:34:21.639Z,9.73
2022-12-09T02:37:03.729Z,10.07
2022-12-09T02:39:51.207Z,10.38
2022-12-09T02:42:20.666Z,11.35
2022-12-09T02:44:50.643Z,10.55
2022-12-09T02:47:21.236Z,10.00
2022-12-09T02:49:51.796Z,9.82
2022-12-09T02:52:19.467Z,9.40
2022-12-09T02:54:47.621Z,10.00
2022-12-09T02:57:18.732Z,10.27
2022-12-09T03:02:14.341Z,10.27
2022-12-09T03:04:44.603Z,9.43
2022-12-09T03:07:26.896Z,10.43
2022-12-09T03:10:02.244Z,9.95
2022-12-09T03:12:33.038Z,9.07
2022-12-09T03:15:01.944Z,9.50
2022-12-09T03:17:35.153Z,9.82
2022-12-09T03:20:29.772Z,9.65
2022-12-09T03:23:00.922Z,8.98
2022-12-09T03:28:03.519Z,10.77
2022-12-09T03:30:37.360Z,10.77
2022-12-09T03:33:05.102Z,10.52
2022-12-09T03:35:36.444Z,10.38
2022-12-09T03:38:06.875Z,10.90
2022-12-09T03:40:33.987Z,9.80
2022-12-09T03:43:23.847Z,10.50
2022-12-09T03:45:53.776Z,11.30
2022-12-09T03:48:21.494Z,10.32
2022-12-09T03:51:05.063Z,10.35
2022-12-09T03:53:57.919Z,9.98
2022-12-09T03:56:29.971Z,10.27
2022-12-09T03:58:59.803Z,10.50
2022-12-09T04:01:28.049Z,11.00
2022-12-09T04:03:56.288Z,10.60
2022-12-09T04:06:24.131Z,10.45
2022-12-09T04:08:50.950Z,10.65
2022-12-09T04:11:17.717Z,10.82
2022-12-09T04:13:44.084Z,10.80
2022-12-09T04:16:10.834Z,10.25
2022-12-09T04:18:37.336Z,10.50
2022-12-09T04:21:09.202Z,10.30
2022-12-09T04:23:41.032Z,10.90
2022-12-09T04:26:14.120Z,10.98
2022-12-09T04:31:11.256Z,12.18
2022-12-09T04:33:38.105Z,12.38
2022-12-09T04:36:10.244Z,13.02
2022-12-09T04:38:37.029Z,13.20
2022-12-09T04:41:04.217Z,13.98
2022-12-09T04:43:30.661Z,16.42
2022-12-09T04:46:02.558Z,14.02
2022-12-09T04:48:29.639Z,14.73
2022-12-09T04:50:56.499Z,14.13
2022-12-09T04:53:23.703Z,15.65
2022-12-09T04:56:03.734Z,16.15
2022-12-09T04:58:30.543Z,15.23
2022-12-09T05:00:57.660Z,15.10
2022-12-09T05:03:24.741Z,15.52
2022-12-09T05:05:51.336Z,15.70
2022-12-09T05:08:17.953Z,18.55
2022-12-09T05:10:49.212Z,15.93
2022-12-09T05:13:16.700Z,15.45
2022-12-09T05:15:43.569Z,16.20
2022-12-09T05:18:10.381Z,15.55
2022-12-09T05:20:39.509Z,14.88
2022-12-09T05:23:09.552Z,14.80
2022-12-09T05:25:37.208Z,15.90
2022-12-09T05:28:03.877Z,15.55
2022-12-09T05:30:30.629Z,15.02
2022-12-09T05:32:57.522Z,15.40
2022-12-09T05:35:24.320Z,15.20
2022-12-09T05:37:51.145Z,14.43
2022-12-09T05:40:17.814Z,14.88
2022-12-09T05:42:44.609Z,15.32
2022-12-09T05:45:11.776Z,14.35
2022-12-09T05:47:38.816Z,14.65
2022-12-09T05:50:08.626Z,15.43
2022-12-09T05:52:37.068Z,15.38
2022-12-09T05:55:08.962Z,14.75
2022-12-09T05:57:36.684Z,16.33
2022-12-09T06:00:06.710Z,15.52
2022-12-09T06:02:34.029Z,16.75
2022-12-09T06:05:01.071Z,16.17
2022-12-09T06:07:27.746Z,15.57
2022-12-09T06:09:54.719Z,16.30
2022-12-09T06:12:21.164Z,14.93
2022-12-09T06:14:47.708Z,15.30
2022-12-09T06:17:14.356Z,15.95
2022-12-09T06:19:40.868Z,15.02
2022-12-09T06:22:07.291Z,14.93
2022-12-09T06:24:35.219Z,16.42
2022-12-09T06:27:02.259Z,17.27
2022-12-09T06:29:28.891Z,16.42
2022-12-09T06:31:55.597Z,15.95
2022-12-09T06:34:22.330Z,16.67
2022-12-09T06:36:48.739Z,16.20
2022-12-09T06:39:15.335Z,15.25
2022-12-09T06:41:43.049Z,15.05
2022-12-09T06:44:16.971Z,15.57
2022-12-09T06:46:48.121Z,15.65
2022-12-09T06:49:15.055Z,15.80
2022-12-09T06:51:41.621Z,14.52
2022-12-09T06:54:09.618Z,15.93
2022-12-09T06:56:36.100Z,15.65
2022-12-09T06:59:07.768Z,15.90
2022-12-09T07:01:35.029Z,16.88
2022-12-09T07:04:04.241Z,16.40
2022-12-09T07:06:31.121Z,16.08
2022-12-09T07:09:04.634Z,14.30
2022-12-09T07:11:31.302Z,15.07
2022-12-09T07:13:58.397Z,14.38
2022-12-09T07:16:25.247Z,14.05
2022-12-09T07:18:52.760Z,13.13
2022-12-09T07:21:21.497Z,14.02
2022-12-09T07:23:48.529Z,12.90
2022-12-09T07:26:16.274Z,12.82
2022-12-09T07:28:43.597Z,13.50
2022-12-09T07:31:22.386Z,14.45
2022-12-09T07:33:50.033Z,13.65
2022-12-09T07:36:20.918Z,13.27
2022-12-09T07:38:48.402Z,14.10
2022-12-09T07:41:18.287Z,14.05
2022-12-09T07:43:46.159Z,13.85
2022-12-09T07:46:14.183Z,13.13
2022-12-09T07:48:41.682Z,13.82
2022-12-09T07:51:09.136Z,13.68
2022-12-09T07:53:36.795Z,12.95
2022-12-09T07:56:06.658Z,11.43
2022-12-09T07:58:33.752Z,12.60
2022-12-09T08:01:08.800Z,11.73
2022-12-09T08:03:36.642Z,13.80
2022-12-09T08:06:03.813Z,12.43
2022-12-09T08:08:32.020Z,12.48
2022-12-09T08:11:08.726Z,10.63
2022-12-09T08:13:36.693Z,11.02
2022-12-09T08:16:05.285Z,13.55
2022-12-09T08:18:33.359Z,11.50
2022-12-09T08:21:04.650Z,12.05
2022-12-09T08:25:58.087Z,12.82
2022-12-09T08:28:26.356Z,12.35
2022-12-09T08:30:52.972Z,12.25
2022-12-09T08:33:19.652Z,12.43
2022-12-09T08:35:46.417Z,12.27
2022-12-09T08:38:13.075Z,12.65
2022-12-09T08:40:40.166Z,12.60
2022-12-09T08:43:08.914Z,12.95
2022-12-09T08:45:36.582Z,13.10
2022-12-09T08:48:03.213Z,11.75
2022-12-09T08:50:30.402Z,13.32
2022-12-09T08:52:56.862Z,12.98
2022-12-09T08:55:23.389Z,12.35
2022-12-09T08:57:50.084Z,12.18
2022-12-09T09:00:17.484Z,13.73
2022-12-09T09:02:44.043Z,11.82
2022-12-09T09:05:10.805Z,11.55
2022-12-09T09:07:38.846Z,12.35
2022-12-09T09:10:06.899Z,12.50
2022-12-09T09:12:40.479Z,10.05
2022-12-09T09:15:10.516Z,13.30
2022-12-09T09:17:37.645Z,13.35
2022-12-09T09:20:05.039Z,11.48
2022-12-09T09:22:31.954Z,11.50
2022-12-09T09:24:58.844Z,11.25
2022-12-09T09:27:25.621Z,11.77
2022-12-09T09:29:52.353Z,11.48
2022-12-09T09:32:18.837Z,12.45
2022-12-09T09:34:45.970Z,12.68
2022-12-09T09:37:12.715Z,12.15
2022-12-09T09:39:40.733Z,12.60
2022-12-09T09:42:15.944Z,13.23
2022-12-09T09:44:52.126Z,13.35
2022-12-09T09:47:40.117Z,12.23
2022-12-09T09:50:19.730Z,12.10
2022-12-09T09:52:46.715Z,12.70
2022-12-09T09:55:19.197Z,11.88
2022-12-09T09:57:48.528Z,9.98
2022-12-09T10:00:27.057Z,11.15
2022-12-09T10:02:59.600Z,10.93
2022-12-09T10:05:33.005Z,11.30
2022-12-09T10:08:18.726Z,10.90
2022-12-09T10:11:14.992Z,10.65
2022-12-09T10:13:48.222Z,11.57
2022-12-09T10:16:25.135Z,9.68
2022-12-09T10:19:16.539Z,8.82
2022-12-09T10:24:24.224Z,8.73
2022-12-09T10:27:00.859Z,8.75
2022-12-09T10:30:00.894Z,9.38
2022-12-09T10:32:35.622Z,6.88
2022-12-09T10:35:14.202Z,9.65
2022-12-09T10:37:41.604Z,7.63
2022-12-09T10:40:08.460Z,10.27
2022-12-09T10:43:04.900Z,8.88
2022-12-09T10:46:00.120Z,7.35
2022-12-09T10:48:43.452Z,7.60
2022-12-09T10:51:17.691Z,8.10
2022-12-09T10:53:49.019Z,8.52
2022-12-09T10:56:25.953Z,7.78
2022-12-09T10:59:26.531Z,9.15
2022-12-09T11:01:54.760Z,8.60
2022-12-09T11:04:28.423Z,10.57
2022-12-09T11:07:00.042Z,10.63
2022-12-09T11:09:31.184Z,7.53
2022-12-09T11:11:59.271Z,10.18
2022-12-09T11:14:40.616Z,9.68
2022-12-09T11:17:13.670Z,9.40
2022-12-09T11:19:40.878Z,10.40
2022-12-09T11:22:22.366Z,9.05
2022-12-09T11:24:49.888Z,9.02
2022-12-09T11:27:26.417Z,12.18
2022-12-09T11:30:27.576Z,10.13
2022-12-09T11:33:02.184Z,10.88
2022-12-09T11:35:44.107Z,9.02
2022-12-09T11:38:22.858Z,9.48
2022-12-09T11:41:03.742Z,9.00
2022-12-09T11:43:47.144Z,9.38
2022-12-09T11:46:13.385Z,8.98
2022-12-09T11:48:44.035Z,9.10
2022-12-09T11:51:29.684Z,11.18
2022-12-09T11:54:19.887Z,9.82
2022-12-09T11:56:49.270Z,9.63
2022-12-09T11:59:22.441Z,9.73
2022-12-09T12:02:05.937Z,9.00
2022-12-09T12:04:57.318Z,8.63
2022-12-09T12:10:16.072Z,8.75
2022-12-09T12:13:02.101Z,9.73
2022-12-09T12:15:37.679Z,8.43
2022-12-09T12:18:07.783Z,9.13
2022-12-09T12:20:48.180Z,9.73
2022-12-09T12:23:29.764Z,8.90
2022-12-09T12:26:18.869Z,9.15
2022-12-09T12:29:05.555Z,9.20
2022-12-09T12:31:58.368Z,8.93
2022-12-09T12:34:39.466Z,9.57
2022-12-09T12:37:12.192Z,8.80
2022-12-09T12:39:53.165Z,10.25
2022-12-09T12:43:08.425Z,9.25
2022-12-09T12:46:11.421Z,9.10
2022-12-09T12:48:53.051Z,9.75
2022-12-09T12:51:45.013Z,9.15
2022-12-09T12:54:28.662Z,8.98
2022-12-09T12:57:10.569Z,9.13
2022-12-09T12:59:57.648Z,10.05
2022-12-09T13:02:43.779Z,9.90
2022-12-09T13:05:20.522Z,9.82
2022-12-09T13:07:54.442Z,9.95
2022-12-09T13:10:36.374Z,8.73
2022-12-09T13:13:05.488Z,9.50
2022-12-09T13:15:41.777Z,10.07
2022-12-09T13:18:20.436Z,10.38
2022-12-09T13:20:52.405Z,8.88
2022-12-09T13:23:44.991Z,10.02
2022-12-09T13:27:05.309Z,10.45
2022-12-09T13:29:39.453Z,10.82
2022-12-09T13:32:35.254Z,9.70
2022-12-09T13:35:12.121Z,11.20
2022-12-09T13:37:44.210Z,12.00
2022-12-09T13:40:30.716Z,9.38
2022-12-09T13:43:03.134Z,11.60
2022-12-09T13:45:47.550Z,10.63
2022-12-09T13:48:17.274Z,12.25
2022-12-09T13:50:43.972Z,10.30
2022-12-09T13:53:19.432Z,10.10
2022-12-09T13:56:10.836Z,9.45
2022-12-09T14:01:14.656Z,7.93
2022-12-09T14:03:46.968Z,9.07
2022-12-09T14:06:24.961Z,9.05
2022-12-09T14:08:56.945Z,8.98
2022-12-09T14:11:43.329Z,8.48
2022-12-09T14:14:38.118Z,7.50
2022-12-09T14:17:36.924Z,7.35
2022-12-09T14:20:21.187Z,7.03
2022-12-09T14:23:06.497Z,6.55
2022-12-09T14:25:33.654Z,7.82
2022-12-09T14:28:09.287Z,7.55
2022-12-09T14:30:53.936Z,8.88
2022-12-09T14:33:44.300Z,9.20
2022-12-09T14:36:13.412Z,9.95
2022-12-09T14:41:58.444Z,9.90
2022-12-09T14:44:40.965Z,10.35
2022-12-09T14:47:32.094Z,9.93
2022-12-09T14:50:24.483Z,10.40
2022-12-09T14:53:01.505Z,9.55
2022-12-09T14:55:30.126Z,10.73
2022-12-09T14:57:59.919Z,10.10
2022-12-09T15:00:32.270Z,9.10
2022-12-09T15:03:31.332Z,9.43
2022-12-09T15:06:26.844Z,9.10
2022-12-09T15:08:56.179Z,10.05
2022-12-09T15:11:31.320Z,9.45
2022-12-09T15:14:20.397Z,9.40
2022-12-09T15:16:50.462Z,8.35
2022-12-09T15:19:58.182Z,8.87
2022-12-09T15:22:20.847Z,8.20
2022-12-09T15:24:50.681Z,9.18
2022-12-09T15:27:20.037Z,9.37
2022-12-09T15:29:46.514Z,8.90
2022-12-09T15:32:22.741Z,8.45
2022-12-09T15:34:49.256Z,8.63
2022-12-09T15:37:19.186Z,31.30
2022-12-09T15:39:55.137Z,11.70
2022-12-09T15:42:27.078Z,14.05
2022-12-09T15:45:11.516Z,10.10
2022-12-09T15:48:04.542Z,10.30
2022-12-09T15:50:54.526Z,10.38
2022-12-09T15:53:36.067Z,9.77
2022-12-09T15:56:16.943Z,9.90
2022-12-09T15:58:49.144Z,9.27
2022-12-09T16:01:25.637Z,11.20
2022-12-09T16:03:54.269Z,10.00
2022-12-09T16:06:38.790Z,10.93
2022-12-09T16:09:13.581Z,11.45
2022-12-09T16:11:47.765Z,11.43
2022-12-09T16:14:16.417Z,14.27
2022-12-09T16:16:48.847Z,10.70
2022-12-09T16:19:33.627Z,11.07
2022-12-09T16:22:05.186Z,9.90
2022-12-09T16:24:57.994Z,11.50
2022-12-09T16:27:25.385Z,8.50
2022-12-09T16:30:13.664Z,9.65
2022-12-09T16:32:44.523Z,9.57
2022-12-09T16:35:10.770Z,9.70
2022-12-09T16:37:40.556Z,9.70
2022-12-09T16:40:22.232Z,11.68
2022-12-09T16:42:50.117Z,10.32
2022-12-09T16:45:30.477Z,9.02
2022-12-09T16:47:57.754Z,10.25
2022-12-09T16:50:29.474Z,9.35
2022-12-09T16:52:56.089Z,9.73
2022-12-09T16:55:25.389Z,10.88
2022-12-09T16:57:52.196Z,10.15
2022-12-09T17:00:18.801Z,9.68
2022-12-09T17:03:02.602Z,9.43
2022-12-09T17:05:28.918Z,9.52
2022-12-09T17:07:55.667Z,8.90
2022-12-09T17:10:22.531Z,10.07
2022-12-09T17:12:48.849Z,10.07
2022-12-09T17:15:17.759Z,10.73
2022-12-09T17:17:48.948Z,11.55
2022-12-09T17:22:42.876Z,10.55
2022-12-09T17:25:10.195Z,9.60
2022-12-09T17:27:36.908Z,11.32
2022-12-09T17:30:04.144Z,11.85
2022-12-09T17:32:30.502Z,10.82
2022-12-09T17:34:56.841Z,9.90
2022-12-09T17:37:23.185Z,10.15
2022-12-09T17:39:54.586Z,11.10
2022-12-09T17:42:23.484Z,11.07
2022-12-09T17:44:49.802Z,11.13
2022-12-09T17:47:16.144Z,11.20
2022-12-09T17:49:42.422Z,10.45
2022-12-09T17:52:08.779Z,11.48
2022-12-09T17:54:35.073Z,10.35
2022-12-09T17:57:01.382Z,11.70
2022-12-09T17:59:27.771Z,12.02
2022-12-09T18:01:54.112Z,12.23
2022-12-09T18:04:20.447Z,11.85
2022-12-09T18:06:46.760Z,11.77
2022-12-09T18:09:18.659Z,12.73
2022-12-09T18:11:45.809Z,18.92
2022-12-09T18:14:12.444Z,15.10
2022-12-09T18:16:38.953Z,16.42
2022-12-09T18:19:12.666Z,13.15
2022-12-09T18:21:39.145Z,11.00
2022-12-09T18:24:05.838Z,11.60
2022-12-09T18:26:38.145Z,11.65
2022-12-09T18:29:07.940Z,13.52
2022-12-09T18:31:34.342Z,12.23
2022-12-09T18:34:00.660Z,12.13
2022-12-09T18:36:28.098Z,11.00
2022-12-09T18:38:54.948Z,12.55
2022-12-09T18:41:28.879Z,12.25
2022-12-09T18:43:56.626Z,11.25
2022-12-09T18:46:31.927Z,13.13
2022-12-09T18:49:00.525Z,13.57
2022-12-09T18:51:28.083Z,16.10
2022-12-09T18:53:54.519Z,16.02
2022-12-09T18:56:21.024Z,15.40
2022-12-09T18:59:05.860Z,15.57
2022-12-09T19:01:34.015Z,17.55
2022-12-09T19:04:03.193Z,21.40
2022-12-09T19:06:32.710Z,20.05
2022-12-09T19:09:02.019Z,19.15
2022-12-09T19:11:30.955Z,17.08
2022-12-09T19:13:58.433Z,16.73
2022-12-09T19:16:25.980Z,16.95
2022-12-09T19:18:56.070Z,16.58
2022-12-09T19:21:23.963Z,15.30
2022-12-09T19:23:50.807Z,14.75
2022-12-09T19:26:18.739Z,17.27
2022-12-09T19:28:59.110Z,16.58
2022-12-09T19:31:28.071Z,16.80
2022-12-09T19:33:59.351Z,16.10
2022-12-09T19:36:27.658Z,15.77
2022-12-09T19:38:54.519Z,16.88
2022-12-09T19:41:21.301Z,18.55
2022-12-09T19:43:47.715Z,19.30
2022-12-09T19:46:15.344Z,16.73
2022-12-09T19:48:46.150Z,15.60
2022-12-09T19:51:15.957Z,16.70
2022-12-09T19:53:43.208Z,17.85
2022-12-09T19:56:14.743Z,17.65
2022-12-09T19:58:42.803Z,18.45
2022-12-09T20:01:11.448Z,18.08
2022-12-09T20:03:39.617Z,18.80
2022-12-09T20:06:07.969Z,20.85
2022-12-09T20:08:34.690Z,16.98
2022-12-09T20:11:01.021Z,17.17
2022-12-09T20:13:31.788Z,20.95
2022-12-09T20:16:03.999Z,20.83
2022-12-09T20:18:30.404Z,20.33
2022-12-09T20:21:01.313Z,23.15
2022-12-09T20:23:28.090Z,22.45
2022-12-09T20:25:54.446Z,20.27
2022-12-09T20:28:20.772Z,20.38
2022-12-09T20:30:47.107Z,19.08
2022-12-09T20:33:13.423Z,19.02
2022-12-09T20:35:39.776Z,18.98
2022-12-09T20:38:06.493Z,18.55
2022-12-09T20:40:40.397Z,16.40
2022-12-09T20:43:07.065Z,16.95
2022-12-09T20:45:33.376Z,15.55
2022-12-09T20:47:59.654Z,16.50
2022-12-09T20:50:26.020Z,15.25
2022-12-09T20:52:52.434Z,14.98
2022-12-09T20:55:20.411Z,14.32
2022-12-09T20:57:46.726Z,14.50
2022-12-09T21:00:13.332Z,14.48
2022-12-09T21:02:40.014Z,13.88
2022-12-09T21:05:08.384Z,13.73
2022-12-09T21:07:35.011Z,12.88
2022-12-09T21:10:01.428Z,13.07
2022-12-09T21:12:27.748Z,13.55
2022-12-09T21:14:54.060Z,13.57
2022-12-09T21:17:20.537Z,15.63
2022-12-09T21:19:47.116Z,12.57
2022-12-09T21:22:13.538Z,13.48
2022-12-09T21:24:39.894Z,14.13
2022-12-09T21:27:06.190Z,13.05
2022-12-09T21:29:32.677Z,15.25
2022-12-09T21:32:00.163Z,15.93
2022-12-09T21:34:27.080Z,15.13
2022-12-09T21:36:53.466Z,15.77
2022-12-09T21:39:19.931Z,13.70
2022-12-09T21:41:46.331Z,12.88
2022-12-09T21:44:18.047Z,14.70
2022-12-09T21:46:45.012Z,14.68
2022-12-09T21:49:11.745Z,14.00
2022-12-09T21:51:38.436Z,13.90
2022-12-09T21:54:05.070Z,14.45
2022-12-09T21:56:35.453Z,14.57
2022-12-09T21:59:03.695Z,14.70
2022-12-09T22:01:39.339Z,14.05
2022-12-09T22:04:08.741Z,13.15
2022-12-09T22:06:35.077Z,13.82
2022-12-09T22:09:02.746Z,14.18
2022-12-09T22:11:31.009Z,14.68
2022-12-09T22:13:59.173Z,14.35
2022-12-09T22:16:28.465Z,14.88
2022-12-09T22:18:57.047Z,13.93
2022-12-09T22:21:26.737Z,14.10
2022-12-09T22:23:55.410Z,14.70
2022-12-09T22:26:22.927Z,14.82
2022-12-09T22:28:49.778Z,13.63
2022-12-09T22:31:21.184Z,15.52
2022-12-09T22:33:49.330Z,13.75
2022-12-09T22:36:16.289Z,13.93
2022-12-09T22:38:43.256Z,13.57
2022-12-09T22:41:26.008Z,14.85
2022-12-09T22:43:54.259Z,13.73
2022-12-09T22:46:23.594Z,13.82
2022-12-09T22:48:50.709Z,14.38
2022-12-09T22:51:25.629Z,14.60
2022-12-09T22:53:54.018Z,14.82
2022-12-09T22:56:21.157Z,13.60
2022-12-09T22:58:47.761Z,13.73
2022-12-09T23:01:29.054Z,14.27
2022-12-09T23:03:56.673Z,14.32
2022-12-09T23:06:24.489Z,14.88
2022-12-09T23:08:51.069Z,15.00
2022-12-09T23:11:23.131Z,15.73
2022-12-09T23:13:49.846Z,14.13
2022-12-09T23:16:22.178Z,14.05
2022-12-09T23:18:49.402Z,14.43
2022-12-09T23:21:18.647Z,14.95
2022-12-09T23:23:45.235Z,15.88
2022-12-09T23:26:15.695Z,14.20
2022-12-09T23:28:44.959Z,15.57
2022-12-09T23:31:13.419Z,15.68
2022-12-09T23:33:42.122Z,14.63
2022-12-09T23:36:11.735Z,14.13
2022-12-09T23:38:38.087Z,14.82
2022-12-09T23:41:05.178Z,14.18
2022-12-09T23:43:35.929Z,15.07
2022-12-09T23:46:04.370Z,17.08
2022-12-09T23:48:30.926Z,16.83
2022-12-09T23:50:57.702Z,15.60
2022-12-09T23:53:24.165Z,14.65
2022-12-09T23:55:50.485Z,15.25
2022-12-09T23:58:17.391Z,15.93
